Time;durP1;ratioP1;P1;durP2;ratioP2;P2;SDS_P1;SDS_P2;PMS_P1;PMS_P2;Temp;Humidity;BMP_temperature;BMP_pressure;BME280_temperature;BME280_humidity;BME280_pressure;Samples;Min_cycle;Max_cycle;Signal;HPM_P1;HPM_P2
2023/11/01 00:01:17;;;;;;;12.00;5.80;;;;;;;15.28;67.32;100185.48;107599;1251;113003;-61
2023/11/01 00:03:46;;;;;;;15.50;5.50;;;;;;;15.31;67.40;100189.42;107560;1256;109238;-62
2023/11/01 00:06:14;;;;;;;10.60;5.20;;;;;;;15.32;67.35;100189.10;107577;1256;107362;-62
2023/11/01 00:08:42;;;;;;;16.20;6.10;;;;;;;15.34;67.37;100183.30;107516;1255;99192;-62
2023/11/01 00:11:11;;;;;;;15.30;5.10;;;;;;;15.38;67.40;100193.53;107608;1254;99107;-63
2023/11/01 00:13:39;;;;;;;13.70;5.90;;;;;;;15.39;67.41;100193.19;107560;1255;112573;-62
2023/11/01 00:16:07;;;;;;;19.20;5.70;;;;;;;15.42;67.47;100197.16;107549;1253;111046;-62
2023/11/01 00:18:36;;;;;;;11.50;6.00;;;;;;;15.48;67.56;100201.00;107559;1255;107202;-62
2023/11/01 00:21:04;;;;;;;14.70;6.50;;;;;;;15.53;67.51;100212.77;107541;1254;99265;-61
2023/11/01 00:23:32;;;;;;;18.30;6.50;;;;;;;15.55;67.58;100206.85;107464;1255;99120;-62
2023/11/01 00:26:01;;;;;;;11.20;5.40;;;;;;;15.59;67.54;100206.07;107554;1251;113443;-62
2023/11/01 00:28:30;;;;;;;7.50;5.10;;;;;;;15.61;67.51;100209.73;107428;1254;110352;-62
2023/11/01 00:30:58;;;;;;;16.90;5.40;;;;;;;15.63;67.46;100215.07;107542;1251;108579;-62
2023/11/01 00:33:26;;;;;;;10.50;5.90;;;;;;;15.65;67.29;100220.27;107547;1255;99197;-62
2023/11/01 00:35:54;;;;;;;12.30;5.20;;;;;;;15.64;67.19;100213.79;107563;1256;99332;-62
2023/11/01 00:38:23;;;;;;;9.50;5.60;;;;;;;15.59;67.46;100217.05;107571;1251;113150;-61
2023/11/01 00:40:52;;;;;;;16.00;5.00;;;;;;;15.53;67.70;100223.33;107621;1256;109564;-61
2023/11/01 00:43:20;;;;;;;12.60;5.80;;;;;;;15.44;67.96;100237.02;107534;1256;107732;-63
2023/11/01 00:45:49;;;;;;;17.10;5.40;;;;;;;15.38;67.74;100255.45;107554;1264;99187;-62
2023/11/01 00:48:17;;;;;;;17.70;5.10;;;;;;;15.35;67.77;100262.70;107464;1256;99743;-61
2023/11/01 00:50:45;;;;;;;13.00;5.70;;;;;;;15.34;68.01;100267.31;107520;1254;113172;-61
2023/11/01 00:53:14;;;;;;;9.40;4.90;;;;;;;15.33;68.13;100263.77;107671;1255;110114;-62
2023/11/01 00:55:42;;;;;;;9.60;5.10;;;;;;;15.37;68.43;100251.45;107534;1253;108144;-62
2023/11/01 00:58:11;;;;;;;12.00;5.40;;;;;;;15.43;68.33;100234.52;107487;1254;99274;-61
2023/11/01 01:00:39;;;;;;;19.30;5.20;;;;;;;15.45;68.22;100235.83;107552;1254;99083;-61
2023/11/01 01:03:10;;;;;;;9.70;5.00;;;;;;;15.47;68.38;100253.09;107541;1253;113122;-62
2023/11/01 01:05:39;;;;;;;9.70;5.30;;;;;;;15.47;68.25;100266.70;107571;1255;109482;-63
2023/11/01 01:08:07;;;;;;;20.60;5.50;;;;;;;15.51;68.35;100278.92;107575;1251;107834;-61
2023/11/01 01:10:36;;;;;;;15.50;5.30;;;;;;;15.54;68.43;100286.83;107582;1256;99864;-62
2023/11/01 01:13:04;;;;;;;16.40;6.20;;;;;;;15.57;68.43;100289.75;107450;1254;99130;-61
2023/11/01 01:15:32;;;;;;;12.00;5.90;;;;;;;15.59;68.50;100284.62;107463;1255;113672;-61
2023/11/01 01:18:01;;;;;;;18.90;5.70;;;;;;;15.60;68.52;100285.96;107580;1257;109263;-62
2023/11/01 01:20:29;;;;;;;12.40;5.30;;;;;;;15.62;68.61;100284.60;107533;1254;108066;-62
2023/11/01 01:22:58;;;;;;;17.00;5.20;;;;;;;15.63;68.56;100284.52;107599;1253;99324;-62
2023/11/01 01:25:27;;;;;;;17.80;6.90;;;;;;;15.64;68.71;100285.48;107579;1254;99060;-62
2023/11/01 01:27:55;;;;;;;14.70;6.70;;;;;;;15.65;68.82;100286.06;107641;1251;112792;-62
2023/11/01 01:30:23;;;;;;;17.40;6.70;;;;;;;15.66;68.95;100276.05;107502;1253;110097;-62
2023/11/01 01:32:51;;;;;;;12.80;6.10;;;;;;;15.68;69.17;100285.06;107588;1255;107300;-63
2023/11/01 01:35:20;;;;;;;13.50;6.60;;;;;;;15.69;69.34;100297.05;107547;1256;99175;-61
2023/11/01 01:37:49;;;;;;;12.70;6.50;;;;;;;15.69;69.18;100300.30;107496;1251;99240;-62
2023/11/01 01:40:18;;;;;;;15.90;7.80;;;;;;;15.70;69.03;100304.73;107601;1254;113359;-61
2023/11/01 01:42:46;;;;;;;27.70;7.10;;;;;;;15.68;69.45;100295.39;107509;1257;110138;-61
2023/11/01 01:45:15;;;;;;;9.40;6.00;;;;;;;15.67;69.17;100287.91;107574;1254;108463;-62
2023/11/01 01:47:44;;;;;;;10.30;5.40;;;;;;;15.66;69.25;100281.66;107478;1254;99207;-63
2023/11/01 01:50:14;;;;;;;12.60;6.50;;;;;;;15.62;69.31;100276.30;107527;1251;98543;-62
2023/11/01 01:52:42;;;;;;;10.80;5.40;;;;;;;15.61;69.72;100265.19;107569;1251;113566;-62
2023/11/01 01:55:11;;;;;;;10.00;5.10;;;;;;;15.59;69.89;100257.30;107563;1254;109512;-62
2023/11/01 01:57:40;;;;;;;12.30;6.50;;;;;;;15.55;69.92;100255.30;107589;1255;108980;-61
2023/11/01 02:00:09;;;;;;;14.30;5.90;;;;;;;15.53;69.99;100259.05;107425;1254;99375;-61
2023/11/01 02:02:41;;;;;;;15.40;6.70;;;;;;;15.50;70.16;100252.63;107514;1257;99172;-63
2023/11/01 02:05:09;;;;;;;13.20;5.80;;;;;;;15.45;70.09;100247.75;107500;1254;113462;-60
2023/11/01 02:07:38;;;;;;;12.50;5.90;;;;;;;15.44;70.30;100253.02;107506;1256;109801;-62
2023/11/01 02:10:07;;;;;;;12.40;5.40;;;;;;;15.41;70.53;100262.17;107477;1251;108277;-63
2023/11/01 02:12:35;;;;;;;10.00;5.40;;;;;;;15.41;70.66;100258.80;107642;1251;99269;-61
2023/11/01 02:15:04;;;;;;;8.60;5.30;;;;;;;15.40;70.71;100254.66;107722;1251;99151;-61
2023/11/01 02:17:33;;;;;;;9.80;5.10;;;;;;;15.40;70.86;100254.32;107567;1253;111714;-62
2023/11/01 02:20:02;;;;;;;13.30;5.30;;;;;;;15.38;70.79;100254.77;107582;1251;108856;-62
2023/11/01 02:22:31;;;;;;;11.10;5.40;;;;;;;15.35;70.98;100252.44;107461;1251;108299;-61
2023/11/01 02:24:59;;;;;;;13.90;5.30;;;;;;;15.32;71.04;100253.64;107642;1251;99069;-61
2023/11/01 02:27:28;;;;;;;8.10;5.20;;;;;;;15.30;71.15;100246.77;107509;1251;99055;-60
2023/11/01 02:29:57;;;;;;;10.80;5.30;;;;;;;15.30;71.23;100248.27;107524;1253;113375;-61
2023/11/01 02:32:30;;;;;;;17.20;5.40;;;;;;;15.28;71.34;100243.61;107635;1251;110943;-62
2023/11/01 02:34:59;;;;;;;10.00;5.40;;;;;;;15.26;71.36;100238.92;107590;1256;107728;-62
2023/11/01 02:37:29;;;;;;;15.00;5.50;;;;;;;15.24;71.39;100244.59;107548;1251;99182;-62
2023/11/01 02:39:57;;;;;;;10.10;4.70;;;;;;;15.21;71.52;100248.05;107556;1251;99730;-61
2023/11/01 02:42:26;;;;;;;11.60;5.10;;;;;;;15.15;71.65;100252.50;107600;1254;112419;-62
2023/11/01 02:44:54;;;;;;;16.60;5.50;;;;;;;15.13;71.74;100254.08;107612;1254;109228;-61
2023/11/01 02:47:23;;;;;;;12.00;5.60;;;;;;;15.14;72.13;100260.43;107534;1251;108574;-63
2023/11/01 02:49:52;;;;;;;12.20;5.80;;;;;;;15.16;72.17;100273.35;107677;1250;99188;-61
2023/11/01 02:52:20;;;;;;;9.40;5.60;;;;;;;15.18;72.18;100284.70;107414;1251;99070;-60
2023/11/01 02:54:48;;;;;;;18.90;6.60;;;;;;;15.21;72.23;100282.60;107610;1251;112539;-62
2023/11/01 02:57:17;;;;;;;15.60;5.90;;;;;;;15.22;72.19;100278.16;107479;1251;109169;-63
2023/11/01 02:59:45;;;;;;;14.70;5.90;;;;;;;15.23;72.38;100285.23;107478;1253;108118;-63
2023/11/01 03:02:13;;;;;;;15.70;6.60;;;;;;;15.23;72.41;100289.75;107476;1254;99265;-61
2023/11/01 03:04:41;;;;;;;12.50;6.20;;;;;;;15.24;72.45;100300.31;107419;1253;99793;-61
2023/11/01 03:07:09;;;;;;;10.60;5.40;;;;;;;15.27;72.70;100299.44;107368;1254;114026;-62
2023/11/01 03:09:38;;;;;;;15.50;5.70;;;;;;;15.27;72.71;100299.91;107599;1251;109801;-63
2023/11/01 03:12:07;;;;;;;18.20;5.70;;;;;;;15.26;72.70;100296.58;107602;1254;108735;-62
2023/11/01 03:14:39;;;;;;;8.10;4.70;;;;;;;15.25;72.77;100295.27;107583;1251;99198;-61
2023/11/01 03:17:08;;;;;;;11.10;6.20;;;;;;;15.24;72.89;100294.14;107610;1250;99720;-61
2023/11/01 03:19:37;;;;;;;13.20;6.60;;;;;;;15.23;73.01;100299.13;107499;1251;113108;-62
2023/11/01 03:22:06;;;;;;;15.20;6.10;;;;;;;15.22;73.02;100302.11;107456;1251;109037;-61
2023/11/01 03:24:34;;;;;;;13.30;5.70;;;;;;;15.21;73.17;100308.01;107482;1251;106542;-62
2023/11/01 03:27:03;;;;;;;11.90;5.20;;;;;;;15.18;73.66;100307.95;107598;1251;99163;-62
2023/11/01 03:29:33;;;;;;;11.60;6.00;;;;;;;15.12;74.02;100301.70;107620;1251;99866;-62
2023/11/01 03:32:03;;;;;;;15.70;4.90;;;;;;;15.06;74.38;100301.20;107451;1251;112686;-62
2023/11/01 03:34:31;;;;;;;12.80;5.10;;;;;;;15.03;74.28;100306.86;107616;1251;109713;-61
2023/11/01 03:37:00;;;;;;;13.70;6.00;;;;;;;15.01;74.30;100309.95;107488;1251;108324;-61
2023/11/01 03:39:28;;;;;;;12.40;5.60;;;;;;;15.01;74.42;100314.11;107510;1252;99186;-61
2023/11/01 03:41:57;;;;;;;16.50;6.60;;;;;;;15.02;74.52;100326.80;107466;1251;99701;-62
2023/11/01 03:44:26;;;;;;;16.70;6.60;;;;;;;15.04;74.83;100332.74;107609;1251;113740;-62
2023/11/01 03:46:55;;;;;;;10.80;5.20;;;;;;;15.06;74.79;100340.80;107535;1257;109661;-61
2023/11/01 03:49:29;;;;;;;14.30;6.10;;;;;;;15.06;75.10;100353.80;107467;1256;107677;-61
2023/11/01 03:52:02;;;;;;;13.40;5.50;;;;;;;15.01;75.32;100366.83;107541;1254;99253;-61
2023/11/01 03:54:33;;;;;;;17.30;5.80;;;;;;;14.94;75.04;100375.05;107656;1251;99167;-61
2023/11/01 03:57:03;;;;;;;9.40;5.10;;;;;;;14.87;74.99;100373.30;107624;1254;113040;-62
2023/11/01 03:59:31;;;;;;;9.90;5.10;;;;;;;14.85;74.95;100363.36;107620;1254;109056;-62
2023/11/01 04:02:00;;;;;;;9.80;4.20;;;;;;;14.87;74.94;100380.73;107443;1251;108096;-62
2023/11/01 04:04:29;;;;;;;13.70;4.60;;;;;;;14.87;74.80;100401.81;107471;1254;99284;-61
2023/11/01 04:06:57;;;;;;;6.90;3.60;;;;;;;14.80;74.65;100423.52;107516;1251;99057;-61
2023/11/01 04:09:25;;;;;;;8.70;2.90;;;;;;;14.66;74.74;100432.50;107571;1251;112723;-62
2023/11/01 04:11:54;;;;;;;11.20;3.50;;;;;;;14.52;75.24;100431.70;107572;1251;109680;-62
2023/11/01 04:14:22;;;;;;;9.60;4.80;;;;;;;14.46;75.27;100420.98;107590;1255;107693;-61
2023/11/01 04:16:50;;;;;;;10.30;4.90;;;;;;;14.36;75.67;100423.30;107641;1251;99190;-62
2023/11/01 04:19:19;;;;;;;8.10;3.90;;;;;;;14.27;76.08;100427.70;107504;1254;99701;-61
2023/11/01 04:21:48;;;;;;;7.20;3.10;;;;;;;14.21;76.36;100413.26;107613;1251;114309;-62
2023/11/01 04:24:16;;;;;;;7.80;3.40;;;;;;;14.17;76.41;100409.52;107483;1251;109476;-61
2023/11/01 04:26:45;;;;;;;9.90;3.50;;;;;;;14.18;76.37;100410.33;107561;1251;108213;-61
2023/11/01 04:29:14;;;;;;;11.10;3.20;;;;;;;14.22;76.40;100409.54;107589;1253;99198;-61
2023/11/01 04:31:43;;;;;;;7.50;3.40;;;;;;;14.27;76.47;100418.10;107605;1254;99157;-61
2023/11/01 04:34:11;;;;;;;8.00;2.40;;;;;;;14.28;76.91;100425.07;107638;1254;111877;-62
2023/11/01 04:36:43;;;;;;;5.30;2.90;;;;;;;14.17;77.24;100435.88;107519;1251;109102;-62
2023/11/01 04:39:12;;;;;;;20.20;12.80;;;;;;;14.03;78.90;100442.60;107616;1254;108845;-62
2023/11/01 04:41:40;;;;;;;8.60;4.30;;;;;;;13.88;80.01;100442.70;107619;1251;99131;-63
2023/11/01 04:44:09;;;;;;;7.00;3.10;;;;;;;13.80;80.47;100449.56;107418;1253;99122;-65
2023/11/01 04:46:37;;;;;;;11.30;2.80;;;;;;;13.77;80.75;100452.73;107642;1250;111988;-62
2023/11/01 04:49:06;;;;;;;12.40;4.00;;;;;;;13.83;80.69;100446.52;107467;1253;109957;-62
2023/11/01 04:51:34;;;;;;;11.20;3.00;;;;;;;13.87;80.58;100440.55;107587;1253;108013;-62
2023/11/01 04:54:06;;;;;;;9.50;3.90;;;;;;;13.91;80.76;100449.04;107604;1251;99159;-62
2023/11/01 04:56:35;;;;;;;6.10;3.00;;;;;;;13.95;80.58;100448.85;107654;1256;99068;-61
2023/11/01 04:59:04;;;;;;;15.60;3.50;;;;;;;13.98;80.40;100445.46;107645;1254;112869;-61
2023/11/01 05:01:32;;;;;;;10.40;3.10;;;;;;;13.99;80.28;100434.34;107598;1252;109088;-62
2023/11/01 05:04:00;;;;;;;11.30;3.00;;;;;;;13.98;80.24;100430.29;107578;1252;108337;-62
2023/11/01 05:06:29;;;;;;;5.60;2.80;;;;;;;13.99;80.36;100425.48;107643;1251;99275;-61
2023/11/01 05:08:57;;;;;;;5.90;2.50;;;;;;;13.99;80.47;100410.38;107587;1251;99291;-61
2023/11/01 05:11:25;;;;;;;11.30;3.00;;;;;;;13.95;80.56;100398.70;107566;1253;112449;-62
2023/11/01 05:13:53;;;;;;;8.80;3.90;;;;;;;13.90;80.70;100391.21;107543;1251;109061;-61
2023/11/01 05:16:21;;;;;;;12.40;3.20;;;;;;;13.88;81.00;100381.23;107547;1252;108251;-60
2023/11/01 05:18:50;;;;;;;10.80;3.40;;;;;;;13.91;81.33;100380.59;107566;1251;99179;-60
2023/11/01 05:21:18;;;;;;;8.20;2.90;;;;;;;13.92;81.35;100384.20;107580;1254;99201;-62
2023/11/01 05:23:46;;;;;;;5.70;3.40;;;;;;;13.93;81.33;100385.60;107598;1251;113315;-62
2023/11/01 05:26:16;;;;;;;7.10;2.70;;;;;;;13.96;81.61;100386.03;107559;1253;109690;-62
2023/11/01 05:28:44;;;;;;;6.20;2.50;;;;;;;13.97;81.61;100389.38;107609;1253;108272;-61
2023/11/01 05:31:12;;;;;;;7.50;2.70;;;;;;;13.95;81.42;100384.11;107584;1251;99064;-61
2023/11/01 05:33:41;;;;;;;4.70;2.30;;;;;;;13.97;81.68;100384.56;107594;1251;99067;-62
2023/11/01 05:36:13;;;;;;;6.30;1.90;;;;;;;13.96;81.76;100383.64;107610;1251;113573;-61
2023/11/01 05:38:43;;;;;;;5.60;2.30;;;;;;;13.94;81.94;100379.02;107571;1251;109688;-61
2023/11/01 05:41:11;;;;;;;5.80;3.70;;;;;;;13.89;81.56;100386.02;107560;1251;107924;-62
2023/11/01 05:43:40;;;;;;;5.00;2.40;;;;;;;13.90;81.75;100402.09;107620;1251;99165;-61
2023/11/01 05:46:09;;;;;;;6.10;3.30;;;;;;;13.92;81.91;100406.42;107520;1249;99367;-61
2023/11/01 05:48:37;;;;;;;9.50;2.90;;;;;;;13.94;82.05;100413.08;107581;1251;112327;-62
2023/11/01 05:51:06;;;;;;;15.70;3.40;;;;;;;13.95;82.31;100423.05;107601;1251;110248;-61
2023/11/01 05:53:35;;;;;;;8.20;3.70;;;;;;;13.93;82.40;100429.05;107587;1253;108326;-61
2023/11/01 05:56:04;;;;;;;13.00;7.10;;;;;;;13.91;82.16;100431.23;107615;1254;99194;-61
2023/11/01 05:58:38;;;;;;;6.70;3.70;;;;;;;13.92;82.30;100429.71;107603;1251;99837;-62
2023/11/01 06:01:06;;;;;;;11.30;4.70;;;;;;;13.93;82.20;100420.70;107668;1251;112621;-62
2023/11/01 06:03:34;;;;;;;10.90;3.50;;;;;;;13.96;82.23;100424.30;107596;1253;109070;-61
2023/11/01 06:06:04;;;;;;;9.50;3.20;;;;;;;13.99;82.21;100436.04;107554;1251;108433;-61
2023/11/01 06:08:32;;;;;;;6.60;2.70;;;;;;;14.02;82.43;100446.80;107546;1253;99176;-61
2023/11/01 06:11:00;;;;;;;8.70;2.70;;;;;;;14.02;82.89;100441.46;107573;1253;99189;-60
2023/11/01 06:13:29;;;;;;;13.20;3.10;;;;;;;14.02;83.10;100443.10;107641;1251;113076;-62
2023/11/01 06:16:03;;;;;;;12.30;2.50;;;;;;;14.00;83.03;100457.04;107416;1250;109971;-60
2023/11/01 06:18:32;;;;;;;5.00;2.20;;;;;;;13.99;82.81;100465.79;107575;1253;107291;-62
2023/11/01 06:21:00;;;;;;;13.80;2.80;;;;;;;13.98;82.49;100467.17;107621;1255;99193;-61
2023/11/01 06:23:28;;;;;;;8.60;2.60;;;;;;;13.99;82.54;100458.52;107525;1251;99317;-60
2023/11/01 06:25:58;;;;;;;9.50;2.20;;;;;;;14.01;81.99;100455.78;107573;1254;113070;-63
2023/11/01 06:28:27;;;;;;;12.60;2.40;;;;;;;14.05;81.69;100460.63;107442;1257;110421;-61
2023/11/01 06:30:56;;;;;;;7.80;3.10;;;;;;;14.09;81.33;100457.61;107619;1251;108169;-61
2023/11/01 06:33:24;;;;;;;8.60;2.30;;;;;;;14.15;81.23;100465.23;107577;1252;99227;-62
2023/11/01 06:35:53;;;;;;;7.10;2.60;;;;;;;14.24;81.40;100482.52;107662;1253;99345;-61
2023/11/01 06:38:21;;;;;;;6.60;2.50;;;;;;;14.34;81.24;100493.87;107579;1251;112195;-61
2023/11/01 06:40:49;;;;;;;7.90;2.10;;;;;;;14.41;81.00;100501.07;107639;1251;110255;-61
2023/11/01 06:43:18;;;;;;;6.20;2.70;;;;;;;14.45;80.77;100506.29;107621;1251;108274;-61
2023/11/01 06:45:46;;;;;;;7.20;3.40;;;;;;;14.46;80.41;100503.55;107561;1252;99254;-61
2023/11/01 06:48:15;;;;;;;13.10;4.70;;;;;;;14.48;80.18;100499.58;107641;1255;99054;-61
2023/11/01 06:50:44;;;;;;;12.30;2.40;;;;;;;14.49;79.92;100493.67;107561;1253;113661;-61
2023/11/01 06:53:12;;;;;;;7.80;2.70;;;;;;;14.51;79.60;100489.55;107404;1250;107953;-61
2023/11/01 06:55:41;;;;;;;8.30;2.60;;;;;;;14.53;79.52;100481.45;107618;1251;107430;-61
2023/11/01 06:58:10;;;;;;;6.60;2.80;;;;;;;14.58;79.43;100469.81;107549;1251;99264;-61
2023/11/01 07:00:38;;;;;;;13.20;2.90;;;;;;;14.60;79.55;100455.80;107600;1252;99740;-61
2023/11/01 07:03:07;;;;;;;17.50;4.00;;;;;;;14.64;79.32;100448.80;107623;1253;113237;-60
2023/11/01 07:05:39;;;;;;;11.60;3.30;;;;;;;14.70;79.56;100450.11;107527;1251;110197;-61
2023/11/01 07:08:07;;;;;;;10.30;4.10;;;;;;;14.73;79.45;100460.56;107549;1251;108495;-61
2023/11/01 07:10:36;;;;;;;9.50;3.20;;;;;;;14.76;79.49;100467.00;107450;1251;99280;-61
2023/11/01 07:13:05;;;;;;;14.40;4.00;;;;;;;14.79;79.44;100472.91;107587;1253;99170;-62
2023/11/01 07:15:33;;;;;;;9.40;3.40;;;;;;;14.81;79.43;100473.39;107646;1251;113184;-63
2023/11/01 07:18:01;;;;;;;6.70;3.00;;;;;;;14.79;78.96;100469.52;107628;1252;109897;-62
2023/11/01 07:20:30;;;;;;;4.50;3.20;;;;;;;14.76;78.65;100464.61;107561;1255;108105;-62
2023/11/01 07:22:58;;;;;;;7.70;3.30;;;;;;;14.76;78.56;100454.46;107577;1255;99298;-61
2023/11/01 07:25:27;;;;;;;5.50;3.20;;;;;;;14.80;78.56;100451.92;107643;1252;98653;-63
2023/11/01 07:27:55;;;;;;;8.90;3.30;;;;;;;14.84;78.62;100445.11;107560;1253;112455;-61
2023/11/01 07:30:24;;;;;;;7.70;3.30;;;;;;;14.91;78.57;100442.02;107544;1253;109512;-62
2023/11/01 07:32:52;;;;;;;8.60;3.50;;;;;;;14.98;78.61;100437.77;107634;1251;106958;-61
2023/11/01 07:35:20;;;;;;;9.50;3.50;;;;;;;15.05;78.65;100436.80;107400;1251;99187;-62
2023/11/01 07:37:49;;;;;;;3.80;2.70;;;;;;;15.09;78.33;100448.38;107585;1253;99170;-62
2023/11/01 07:40:17;;;;;;;12.90;8.00;;;;;;;15.12;78.05;100460.27;107564;1255;113333;-62
2023/11/01 07:42:46;;;;;;;7.90;3.90;;;;;;;15.17;77.93;100474.12;107677;1252;109875;-62
2023/11/01 07:45:15;;;;;;;7.90;4.40;;;;;;;15.16;77.05;100479.61;107530;1253;108532;-61
2023/11/01 07:47:43;;;;;;;20.20;8.70;;;;;;;15.20;77.27;100489.48;107461;1252;99346;-61
2023/11/01 07:50:13;;;;;;;10.40;3.90;;;;;;;15.26;77.12;100490.42;107480;1251;99089;-61
2023/11/01 07:52:41;;;;;;;7.80;3.30;;;;;;;15.31;77.05;100496.73;107558;1253;113234;-62
2023/11/01 07:55:10;;;;;;;8.40;3.60;;;;;;;15.37;76.85;100501.86;107587;1251;109417;-62
2023/11/01 07:57:39;;;;;;;6.40;3.70;;;;;;;15.37;75.96;100501.83;107636;1251;108137;-62
2023/11/01 08:00:08;;;;;;;14.00;3.90;;;;;;;15.38;75.87;100504.66;107553;1251;99236;-63
2023/11/01 08:02:36;;;;;;;12.50;4.70;;;;;;;15.41;75.80;100506.91;107665;1251;99080;-62
2023/11/01 08:05:06;;;;;;;14.20;4.80;;;;;;;15.44;75.78;100502.11;107475;1253;113192;-62
2023/11/01 08:07:34;;;;;;;14.70;4.70;;;;;;;15.52;75.81;100498.70;107669;1251;108432;-62
2023/11/01 08:10:03;;;;;;;14.80;4.70;;;;;;;15.61;75.60;100492.33;107509;1251;107056;-61
2023/11/01 08:12:32;;;;;;;10.40;4.00;;;;;;;15.68;75.18;100497.67;107465;1254;99193;-62
2023/11/01 08:15:00;;;;;;;14.10;4.80;;;;;;;15.75;74.79;100499.74;107542;1252;99309;-61
2023/11/01 08:17:28;;;;;;;15.10;7.00;;;;;;;15.78;74.52;100501.44;107533;1253;112974;-62
2023/11/01 08:19:58;;;;;;;13.10;4.80;;;;;;;15.91;74.36;100504.04;107528;1251;109985;-62
2023/11/01 08:22:29;;;;;;;12.70;5.40;;;;;;;16.00;73.83;100503.74;107527;1253;107621;-62
2023/11/01 08:24:57;;;;;;;15.50;8.50;;;;;;;16.09;73.72;100509.98;107499;1251;99394;-62
2023/11/01 08:27:26;;;;;;;11.10;3.50;;;;;;;16.21;73.82;100510.54;107505;1255;99705;-62
2023/11/01 08:29:54;;;;;;;7.70;4.10;;;;;;;16.36;73.66;100513.19;107449;1251;113235;-62
2023/11/01 08:32:22;;;;;;;10.10;3.70;;;;;;;16.57;73.42;100516.19;107472;1253;109855;-62
2023/11/01 08:34:51;;;;;;;7.50;3.00;;;;;;;16.75;72.86;100521.98;107419;1254;108384;-62
2023/11/01 08:37:19;;;;;;;7.70;3.70;;;;;;;16.91;72.13;100521.95;107396;1251;99205;-60
2023/11/01 08:39:48;;;;;;;7.40;2.60;;;;;;;16.98;70.84;100527.98;107499;1252;99148;-62
2023/11/01 08:42:16;;;;;;;8.90;3.30;;;;;;;16.99;69.51;100528.74;107547;1251;113216;-62
2023/11/01 08:44:44;;;;;;;8.30;3.50;;;;;;;16.92;69.46;100527.63;107367;1253;109969;-61
2023/11/01 08:47:42;;;;;;;4.00;2.60;;;;;;;16.87;69.19;100528.70;107443;1250;107087;-62
2023/11/01 08:50:12;;;;;;;5.60;3.10;;;;;;;16.90;69.61;100536.11;107502;1251;99072;-61
2023/11/01 08:52:43;;;;;;;5.80;2.80;;;;;;;17.01;69.75;100533.17;107535;1252;99755;-62
2023/11/01 08:55:13;;;;;;;4.50;2.60;;;;;;;17.11;69.40;100533.54;107492;1255;113504;-62
2023/11/01 08:57:46;;;;;;;5.90;3.10;;;;;;;17.20;69.10;100529.75;107498;1255;109843;-62
2023/11/01 09:00:15;;;;;;;6.70;2.80;;;;;;;17.35;69.06;100532.60;107460;1253;107864;-62
2023/11/01 09:02:44;;;;;;;4.00;2.20;;;;;;;17.50;68.99;100529.76;107490;1253;99211;-61
2023/11/01 09:05:15;;;;;;;5.50;2.50;;;;;;;17.95;68.47;100529.64;107571;1253;99219;-63
2023/11/01 09:07:43;;;;;;;6.80;3.20;;;;;;;18.36;67.61;100528.27;107567;1252;113798;-63
2023/11/01 09:10:12;;;;;;;10.80;2.70;;;;;;;18.51;67.03;100524.05;107493;1253;108644;-61
2023/11/01 09:12:40;;;;;;;4.60;2.80;;;;;;;18.53;66.55;100524.26;107500;1252;108453;-62
2023/11/01 09:15:08;;;;;;;6.50;3.10;;;;;;;18.55;66.46;100519.23;107467;1253;99223;-61
2023/11/01 09:17:36;;;;;;;10.30;3.00;;;;;;;18.58;66.14;100517.30;107510;1252;99715;-61
2023/11/01 09:20:06;;;;;;;6.30;3.10;;;;;;;18.67;65.98;100516.70;107543;1255;113242;-61
2023/11/01 09:22:34;;;;;;;9.30;2.90;;;;;;;18.80;66.05;100511.74;107565;1251;107911;-61
2023/11/01 09:25:03;;;;;;;8.80;3.00;;;;;;;19.21;65.23;100505.98;107493;1251;108118;-62
2023/11/01 09:27:31;;;;;;;10.90;3.40;;;;;;;20.57;64.40;100500.84;107514;1251;99457;-63
2023/11/01 09:29:59;;;;;;;7.80;3.30;;;;;;;21.76;62.66;100498.22;107433;1252;99747;-63
2023/11/01 09:32:28;;;;;;;13.00;3.60;;;;;;;22.97;61.57;100491.39;107333;1251;114197;-64
2023/11/01 09:34:57;;;;;;;7.40;2.80;;;;;;;24.08;57.42;100491.27;107535;1253;109267;-62
2023/11/01 09:37:25;;;;;;;18.10;3.60;;;;;;;24.96;55.30;100487.53;107555;1253;108710;-63
2023/11/01 09:39:53;;;;;;;10.30;2.00;;;;;;;25.77;51.05;100486.99;107567;1255;99195;-63
2023/11/01 09:42:23;;;;;;;7.90;2.40;;;;;;;26.34;48.31;100484.73;107523;1253;99734;-62
2023/11/01 09:44:55;;;;;;;6.00;2.50;;;;;;;26.10;46.46;100485.84;107596;1251;112081;-62
2023/11/01 09:47:26;;;;;;;15.80;2.60;;;;;;;25.68;45.85;100487.66;107534;1251;110699;-62
2023/11/01 09:49:56;;;;;;;20.40;3.50;;;;;;;25.69;45.55;100491.36;107484;1253;107257;-62
2023/11/01 09:52:26;;;;;;;9.60;3.20;;;;;;;26.48;45.68;100493.86;107523;1252;99086;-62
2023/11/01 09:54:54;;;;;;;15.40;3.30;;;;;;;26.99;44.62;100492.34;107536;1251;99798;-62
2023/11/01 09:57:25;;;;;;;8.50;3.10;;;;;;;26.66;42.94;100487.17;107463;1251;112708;-62
2023/11/01 09:59:54;;;;;;;9.80;3.10;;;;;;;26.05;43.86;100482.70;107556;1251;110143;-62
2023/11/01 10:02:23;;;;;;;16.80;3.40;;;;;;;25.43;44.66;100487.01;107429;1251;108652;-62
2023/11/01 10:04:51;;;;;;;8.90;2.90;;;;;;;24.93;44.58;100480.85;107403;1253;99216;-62
2023/11/01 10:07:20;;;;;;;12.60;2.70;;;;;;;24.40;45.16;100482.89;107539;1251;99080;-62
2023/11/01 10:09:50;;;;;;;37.90;3.60;;;;;;;23.91;44.36;100483.39;107376;1253;113565;-62
2023/11/01 10:12:19;;;;;;;11.40;3.00;;;;;;;23.39;45.31;100492.50;107228;1253;388999;-62
2023/11/01 10:14:48;;;;;;;13.20;3.10;;;;;;;23.02;45.98;100497.77;107516;1251;108197;-63
2023/11/01 10:17:16;;;;;;;16.70;3.60;;;;;;;22.64;46.35;100504.53;107516;1251;99064;-64
2023/11/01 10:19:44;;;;;;;9.70;3.00;;;;;;;22.25;46.94;100512.34;107434;1251;99084;-60
2023/11/01 10:22:14;;;;;;;9.80;2.90;;;;;;;21.94;48.00;100519.52;107509;1251;113064;-62
2023/11/01 10:24:42;;;;;;;4.90;2.00;;;;;;;21.54;47.86;100528.76;107469;1253;110175;-62
2023/11/01 10:27:11;;;;;;;7.50;2.40;;;;;;;20.95;49.06;100531.33;107547;1252;107160;-62
2023/11/01 10:29:44;;;;;;;8.30;2.80;;;;;;;20.56;50.60;100542.33;107520;1251;99166;-62
2023/11/01 10:32:14;;;;;;;10.20;2.60;;;;;;;20.24;51.65;100541.55;107573;1252;99996;-62
2023/11/01 10:34:42;;;;;;;4.30;2.10;;;;;;;19.99;52.68;100544.16;107615;1250;113774;-63
2023/11/01 10:37:11;;;;;;;4.30;1.90;;;;;;;19.74;53.23;100554.30;107442;1251;109928;-61
2023/11/01 10:39:41;;;;;;;7.10;2.60;;;;;;;19.54;53.73;100557.80;107445;1253;108200;-61
2023/11/01 10:42:10;;;;;;;7.90;3.20;;;;;;;19.33;54.08;100568.47;107454;1253;99183;-60
2023/11/01 10:44:38;;;;;;;8.90;2.80;;;;;;;19.07;54.74;100568.56;107547;1251;99723;-61
2023/11/01 10:47:08;;;;;;;6.90;2.80;;;;;;;18.83;55.31;100573.65;107538;1252;113224;-62
2023/11/01 10:49:37;;;;;;;8.50;3.50;;;;;;;18.68;56.23;100579.96;107345;1257;109167;-62
2023/11/01 10:52:08;;;;;;;9.60;3.70;;;;;;;18.51;56.68;100578.79;107488;1251;107640;-62
2023/11/01 10:54:37;;;;;;;9.80;4.50;;;;;;;18.39;57.31;100582.14;107447;1253;99321;-61
2023/11/01 10:57:07;;;;;;;7.60;4.10;;;;;;;18.23;57.93;100584.67;107467;1251;99701;-61
2023/11/01 10:59:49;;;;;;;9.20;5.00;;;;;;;18.10;59.24;100581.89;107488;1251;113710;-61
2023/11/01 11:02:26;;;;;;;9.40;4.40;;;;;;;17.94;59.86;100584.80;107545;1251;108176;-62
2023/11/01 11:05:05;;;;;;;9.80;4.80;;;;;;;17.73;59.76;100589.96;107470;1253;108228;-61
2023/11/01 11:07:52;;;;;;;6.50;3.80;;;;;;;17.50;60.39;100584.96;107519;1252;99273;-60
2023/11/01 11:10:28;;;;;;;9.50;4.30;;;;;;;17.21;61.27;100596.05;107519;1251;99746;-61
2023/11/01 11:13:17;;;;;;;6.10;3.60;;;;;;;16.80;62.36;100602.87;107460;1251;112075;-63
2023/11/01 11:15:45;;;;;;;6.10;3.60;;;;;;;16.52;63.82;100601.83;107517;1251;108639;-63
2023/11/01 11:18:18;;;;;;;4.70;3.30;;;;;;;16.30;63.71;100604.00;107471;1251;108470;-61